Stony Fork, North Carolina
Current Conditions -  °F | °C
As of 6:15 AM on Wednesday 22 Oct 2014 (Local Time) from KTNB Reporting Station
Broken Clouds Broken Clouds  
Wind Chill: 31°   Ceiling: 1700
Heat Index: 40°   Visibility: 10mi
Dew Point: 33°   Wind: 20mph
Humidity: 77%   Direction: 300°WNW
Pressure: 30.03"   Gusts: 26mph
Location:  36.1935°N, 81.5276°W
Report Text: KTNB 221015Z AUTO 30017G23KT 10SM BKN017 05/01 A3003 RMK AO2 T00450008
Loading
Personal Weather Stations






























Interactive Weather Map
Tropical Storm Tracking
New forecast layout! Learn more

10-Day Weather Forecast

Advertisements
Track Severe Weather on mobile